createdAt,value
2019-01-06T00:00:50.547Z,8.47
2019-01-06T00:01:50.716Z,8.47
2019-01-06T00:02:50.732Z,8.45
2019-01-06T00:03:50.827Z,8.50
2019-01-06T00:04:50.907Z,8.53
2019-01-06T00:05:51.003Z,8.55
2019-01-06T00:06:51.093Z,8.50
2019-01-06T00:07:51.182Z,8.48
2019-01-06T00:08:51.271Z,8.48
2019-01-06T00:09:51.365Z,8.48
2019-01-06T00:10:51.453Z,8.47
2019-01-06T00:11:51.542Z,8.47
2019-01-06T00:12:51.632Z,8.42
2019-01-06T00:13:51.716Z,8.42
2019-01-06T00:14:51.812Z,8.37
2019-01-06T00:15:51.900Z,8.33
2019-01-06T00:16:51.992Z,8.42
2019-01-06T00:17:52.078Z,8.48
2019-01-06T00:18:52.168Z,8.48
2019-01-06T00:19:52.274Z,8.48
2019-01-06T00:20:52.349Z,8.45
2019-01-06T00:21:52.435Z,8.44
2019-01-06T00:22:52.522Z,8.35
2019-01-06T00:23:52.614Z,8.32
2019-01-06T00:24:52.707Z,8.33
2019-01-06T00:25:52.798Z,8.36
2019-01-06T00:26:52.889Z,8.36
2019-01-06T00:27:52.980Z,8.36
2019-01-06T00:28:53.068Z,8.35
2019-01-06T00:29:53.153Z,8.40
2019-01-06T00:30:53.246Z,8.39
2019-01-06T00:31:53.337Z,8.28
2019-01-06T00:32:53.427Z,8.33
2019-01-06T00:33:53.517Z,8.32
2019-01-06T00:34:53.602Z,8.35
2019-01-06T00:35:53.691Z,8.35
2019-01-06T00:36:53.777Z,8.36
2019-01-06T00:37:53.884Z,8.36
2019-01-06T00:38:53.971Z,8.39
2019-01-06T00:39:54.062Z,8.40
2019-01-06T00:40:54.156Z,8.36
2019-01-06T00:41:54.244Z,8.45
2019-01-06T00:42:54.335Z,8.47
2019-01-06T00:43:54.420Z,8.45
2019-01-06T00:44:54.507Z,8.47
2019-01-06T00:45:54.593Z,8.44
2019-01-06T00:46:54.689Z,8.44
2019-01-06T00:47:54.774Z,8.30
2019-01-06T00:48:54.862Z,8.42
2019-01-06T00:49:54.953Z,8.45
2019-01-06T00:50:55.039Z,8.39
2019-01-06T00:51:55.180Z,8.39
2019-01-06T00:52:55.215Z,8.36
2019-01-06T00:53:55.305Z,8.42
2019-01-06T00:54:55.393Z,8.50
2019-01-06T00:55:55.480Z,8.50
2019-01-06T00:56:55.578Z,8.51
2019-01-06T00:57:55.662Z,8.51
2019-01-06T00:58:55.750Z,8.50
2019-01-06T00:59:55.841Z,8.51
2019-01-06T01:00:55.924Z,8.50
2019-01-06T01:01:56.034Z,8.54
2019-01-06T01:02:56.115Z,8.54
2019-01-06T01:03:56.207Z,8.54
2019-01-06T01:04:56.299Z,8.55
2019-01-06T01:05:56.386Z,8.47
2019-01-06T01:06:56.475Z,8.47
2019-01-06T01:07:56.560Z,8.47
2019-01-06T01:08:56.650Z,8.48
2019-01-06T01:09:56.738Z,8.45
2019-01-06T01:10:56.828Z,8.48
2019-01-06T01:11:56.916Z,8.48
2019-01-06T01:12:57.019Z,8.36
2019-01-06T01:13:57.096Z,8.29
2019-01-06T01:14:57.189Z,8.30
2019-01-06T01:15:57.279Z,8.36
2019-01-06T01:16:57.364Z,8.36
2019-01-06T01:17:57.458Z,8.36
2019-01-06T01:18:57.545Z,8.32
2019-01-06T01:19:57.642Z,8.47
2019-01-06T01:20:57.732Z,8.33
2019-01-06T01:21:57.823Z,8.25
2019-01-06T01:22:57.910Z,8.30
2019-01-06T01:23:58.002Z,8.37
2019-01-06T01:24:58.092Z,8.44
2019-01-06T01:25:58.183Z,8.40
2019-01-06T01:26:58.271Z,8.54
2019-01-06T01:27:58.362Z,8.50
2019-01-06T01:28:58.456Z,8.53
2019-01-06T01:29:58.543Z,8.55
2019-01-06T01:30:58.636Z,8.62
2019-01-06T01:31:58.726Z,8.55
2019-01-06T01:32:58.816Z,8.62
2019-01-06T01:33:58.905Z,8.63
2019-01-06T01:34:58.999Z,8.63
2019-01-06T01:35:59.088Z,8.65
2019-01-06T01:36:59.177Z,8.60
2019-01-06T01:37:59.268Z,8.65
2019-01-06T01:38:59.360Z,8.73
2019-01-06T01:39:59.447Z,8.58
2019-01-06T01:40:59.585Z,8.66
2019-01-06T01:41:59.628Z,8.66
2019-01-06T01:42:59.718Z,8.62
2019-01-06T01:43:59.819Z,8.53
2019-01-06T01:44:59.897Z,8.60
2019-01-06T01:45:59.988Z,8.53
2019-01-06T01:47:00.101Z,8.55
2019-01-06T01:48:00.190Z,8.57
2019-01-06T01:49:00.280Z,8.45
2019-01-06T01:50:00.375Z,8.53
2019-01-06T01:51:00.456Z,8.51
2019-01-06T01:52:00.546Z,8.53
2019-01-06T01:53:00.674Z,8.42
2019-01-06T01:54:00.721Z,8.39
2019-01-06T01:55:00.814Z,8.42
2019-01-06T01:56:00.909Z,8.53
2019-01-06T01:57:00.996Z,8.53
2019-01-06T01:58:01.085Z,8.51
2019-01-06T01:59:01.177Z,8.55
2019-01-06T02:00:01.266Z,8.58
2019-01-06T02:01:01.354Z,8.57
2019-01-06T02:02:01.441Z,8.53
2019-01-06T02:03:01.536Z,8.54
2019-01-06T02:04:01.629Z,8.50
2019-01-06T02:05:01.718Z,8.36
2019-01-06T02:06:01.813Z,8.40
2019-01-06T02:07:01.899Z,8.36
2019-01-06T02:08:01.988Z,8.39
2019-01-06T02:09:02.076Z,8.35
2019-01-06T02:10:02.171Z,8.37
2019-01-06T02:11:02.262Z,8.40
2019-01-06T02:12:02.348Z,8.48
2019-01-06T02:13:02.461Z,8.45
2019-01-06T02:14:02.527Z,8.40
2019-01-06T02:15:02.617Z,8.53
2019-01-06T02:16:02.706Z,8.40
2019-01-06T02:17:02.801Z,8.42
2019-01-06T02:18:02.886Z,8.45
2019-01-06T02:19:02.976Z,8.42
2019-01-06T02:20:03.064Z,8.53
2019-01-06T02:21:03.153Z,8.40
2019-01-06T02:22:03.241Z,8.36
2019-01-06T02:23:03.335Z,8.36
2019-01-06T02:24:03.421Z,8.40
2019-01-06T02:25:03.506Z,8.48
2019-01-06T02:26:03.609Z,8.48
2019-01-06T02:27:05.509Z,8.47
2019-01-06T02:28:03.786Z,8.48
2019-01-06T02:29:03.873Z,8.40
2019-01-06T02:30:03.985Z,8.45
2019-01-06T02:31:04.068Z,8.51
2019-01-06T02:32:04.155Z,8.44
2019-01-06T02:33:04.239Z,8.30
2019-01-06T02:34:04.326Z,8.29
2019-01-06T02:35:04.418Z,8.36
2019-01-06T02:36:04.508Z,8.39
2019-01-06T02:37:04.598Z,8.22
2019-01-06T02:38:04.685Z,8.36
2019-01-06T02:39:04.785Z,8.32
2019-01-06T02:40:04.863Z,8.40
2019-01-06T02:41:04.961Z,8.35
2019-01-06T02:42:05.048Z,8.22
2019-01-06T02:43:05.141Z,8.30
2019-01-06T02:44:05.223Z,8.30
2019-01-06T02:45:05.307Z,8.37
2019-01-06T02:46:05.419Z,8.12
2019-01-06T02:47:05.500Z,8.12
2019-01-06T02:48:05.588Z,8.10
2019-01-06T02:49:05.673Z,8.12
2019-01-06T02:50:05.771Z,8.18
2019-01-06T02:51:05.856Z,8.30
2019-01-06T02:52:05.953Z,8.25
2019-01-06T02:53:06.035Z,8.37
2019-01-06T02:54:06.125Z,8.20
2019-01-06T02:55:06.212Z,8.21
2019-01-06T02:56:06.318Z,8.22
2019-01-06T02:57:06.401Z,8.25
2019-01-06T02:58:06.497Z,8.21
2019-01-06T02:59:06.585Z,8.14
2019-01-06T03:00:06.676Z,8.17
2019-01-06T03:01:06.762Z,8.12
2019-01-06T03:02:06.847Z,8.00
2019-01-06T03:03:06.940Z,8.15
2019-01-06T03:04:07.031Z,8.07
2019-01-06T03:05:07.120Z,8.22
2019-01-06T03:06:07.214Z,8.14
2019-01-06T03:07:07.291Z,8.14
2019-01-06T03:08:07.379Z,8.12
2019-01-06T03:09:07.462Z,8.03
2019-01-06T03:10:07.553Z,8.12
2019-01-06T03:11:07.639Z,8.08
2019-01-06T03:12:07.732Z,8.20
2019-01-06T03:13:07.817Z,8.11
2019-01-06T03:14:07.906Z,8.22
2019-01-06T03:15:07.992Z,8.10
2019-01-06T03:16:08.075Z,8.17
2019-01-06T03:17:08.165Z,8.20
2019-01-06T03:18:08.255Z,8.26
2019-01-06T03:19:08.344Z,8.22
2019-01-06T03:20:08.432Z,8.21
2019-01-06T03:21:08.526Z,8.25
2019-01-06T03:22:08.617Z,8.18
2019-01-06T03:23:08.720Z,8.12
2019-01-06T03:24:08.792Z,8.11
2019-01-06T03:25:08.882Z,8.17
2019-01-06T03:26:08.973Z,8.14
2019-01-06T03:27:09.062Z,8.07
2019-01-06T03:28:09.151Z,8.07
2019-01-06T03:29:09.252Z,8.18
2019-01-06T03:30:09.329Z,8.11
2019-01-06T03:31:09.422Z,8.17
2019-01-06T03:32:09.519Z,8.20
2019-01-06T03:33:09.592Z,8.20
2019-01-06T03:34:09.679Z,8.11
2019-01-06T03:35:09.780Z,8.02
2019-01-06T03:36:09.886Z,7.96
2019-01-06T03:37:09.939Z,8.00
2019-01-06T03:38:10.026Z,8.02
2019-01-06T03:39:10.115Z,8.12
2019-01-06T03:40:10.203Z,8.12
2019-01-06T03:41:10.293Z,8.25
2019-01-06T03:42:10.382Z,8.15
2019-01-06T03:43:10.469Z,8.17
2019-01-06T03:44:10.556Z,8.22
2019-01-06T03:45:10.645Z,8.17
2019-01-06T03:46:10.729Z,8.22
2019-01-06T03:47:10.821Z,8.29
2019-01-06T03:48:10.912Z,8.25
2019-01-06T03:49:11.004Z,8.22
2019-01-06T03:50:11.139Z,8.10
2019-01-06T03:51:11.180Z,8.17
2019-01-06T03:52:11.277Z,8.21
2019-01-06T03:53:11.356Z,8.28
2019-01-06T03:54:11.447Z,8.32
2019-01-06T03:55:11.536Z,8.33
2019-01-06T03:56:11.623Z,8.32
2019-01-06T03:57:11.717Z,8.35
2019-01-06T03:58:11.807Z,8.37
2019-01-06T03:59:11.894Z,8.37
2019-01-06T04:00:11.979Z,8.48
2019-01-06T04:01:12.074Z,8.45
2019-01-06T04:02:12.161Z,8.45
2019-01-06T04:03:12.246Z,8.40
2019-01-06T04:04:12.337Z,8.44
2019-01-06T04:05:12.427Z,8.30
2019-01-06T04:06:12.518Z,8.45
2019-01-06T04:07:12.607Z,8.36
2019-01-06T04:08:12.695Z,8.40
2019-01-06T04:09:12.785Z,8.42
2019-01-06T04:10:13.016Z,8.42
2019-01-06T04:11:15.230Z,8.42
2019-01-06T04:12:13.052Z,8.47
2019-01-06T04:13:13.141Z,8.44
2019-01-06T04:14:13.230Z,8.48
2019-01-06T04:15:13.318Z,8.42
2019-01-06T04:16:13.407Z,8.45
2019-01-06T04:17:13.491Z,8.47
2019-01-06T04:18:13.584Z,8.47
2019-01-06T04:19:13.694Z,8.48
2019-01-06T04:20:13.780Z,8.47
2019-01-06T04:21:13.869Z,8.51
2019-01-06T04:22:13.957Z,8.51
2019-01-06T04:23:14.047Z,8.51
2019-01-06T04:24:14.140Z,8.48
2019-01-06T04:25:14.234Z,8.44
2019-01-06T04:26:14.317Z,8.53
2019-01-06T04:27:14.407Z,8.53
2019-01-06T04:28:14.505Z,8.50
2019-01-06T04:29:14.582Z,8.53
2019-01-06T04:30:14.680Z,8.45
2019-01-06T04:31:14.764Z,8.51
2019-01-06T04:32:14.849Z,8.40
2019-01-06T04:33:14.943Z,8.47
2019-01-06T04:34:15.038Z,8.42
2019-01-06T04:35:15.122Z,8.48
2019-01-06T04:36:15.211Z,8.47
2019-01-06T04:37:15.299Z,8.48
2019-01-06T04:38:15.387Z,8.51
2019-01-06T04:39:15.474Z,8.47
2019-01-06T04:40:15.565Z,8.44
2019-01-06T04:41:15.655Z,8.53
2019-01-06T04:42:15.740Z,8.29
2019-01-06T04:43:15.833Z,8.32
2019-01-06T04:44:15.934Z,8.20
2019-01-06T04:45:16.029Z,8.37
2019-01-06T04:46:16.110Z,8.33
2019-01-06T04:47:16.200Z,8.35
2019-01-06T04:48:16.292Z,8.36
2019-01-06T04:49:16.379Z,8.35
2019-01-06T04:50:16.477Z,8.39
2019-01-06T04:51:16.562Z,8.35
2019-01-06T04:52:16.653Z,8.36
2019-01-06T04:53:16.731Z,8.37
2019-01-06T04:54:16.825Z,8.35
2019-01-06T04:55:16.914Z,8.33
2019-01-06T04:56:17.005Z,8.39
2019-01-06T04:57:17.087Z,8.45
2019-01-06T04:58:17.178Z,8.40
2019-01-06T04:59:17.260Z,8.44
2019-01-06T05:00:17.350Z,8.47
2019-01-06T05:01:17.445Z,8.40
2019-01-06T05:02:17.529Z,8.37
2019-01-06T05:03:17.608Z,8.42
2019-01-06T05:04:17.713Z,8.48
2019-01-06T05:05:17.805Z,8.42
2019-01-06T05:06:17.894Z,8.45
2019-01-06T05:07:17.982Z,8.45
2019-01-06T05:08:18.070Z,8.35
2019-01-06T05:09:18.178Z,8.33
2019-01-06T05:10:18.266Z,8.25
2019-01-06T05:11:18.357Z,8.28
2019-01-06T05:12:18.445Z,8.17
2019-01-06T05:13:18.535Z,8.07
2019-01-06T05:14:18.628Z,8.22
2019-01-06T05:15:18.717Z,8.17
2019-01-06T05:16:18.807Z,8.21
2019-01-06T05:17:18.894Z,8.32
2019-01-06T05:18:18.985Z,8.20
2019-01-06T05:19:19.070Z,8.28
2019-01-06T05:20:19.164Z,8.28
2019-01-06T05:21:19.253Z,8.37
2019-01-06T05:22:19.344Z,8.33
2019-01-06T05:23:19.430Z,8.32
2019-01-06T05:24:19.521Z,8.29
2019-01-06T05:25:19.608Z,8.33
2019-01-06T05:26:19.697Z,8.36
2019-01-06T05:27:19.786Z,8.32
2019-01-06T05:28:19.876Z,8.32
2019-01-06T05:29:19.966Z,8.39
2019-01-06T05:30:20.055Z,8.37
2019-01-06T05:31:20.142Z,8.29
2019-01-06T05:32:20.232Z,8.33
2019-01-06T05:33:20.321Z,8.22
2019-01-06T05:34:20.424Z,8.21
2019-01-06T05:35:20.509Z,8.30
2019-01-06T05:36:20.599Z,8.11
2019-01-06T05:37:20.682Z,8.18
2019-01-06T05:38:20.770Z,8.12
2019-01-06T05:39:20.862Z,7.99
2019-01-06T05:40:20.951Z,8.11
2019-01-06T05:41:21.042Z,8.18
2019-01-06T05:42:21.133Z,8.20
2019-01-06T05:43:21.217Z,8.12
2019-01-06T05:44:21.310Z,8.14
2019-01-06T05:45:21.398Z,8.10
2019-01-06T05:46:21.486Z,8.15
2019-01-06T05:47:21.576Z,8.12
2019-01-06T05:48:21.669Z,8.18
2019-01-06T05:49:21.780Z,8.21
2019-01-06T05:50:21.872Z,8.29
2019-01-06T05:51:21.961Z,8.37
2019-01-06T05:52:22.050Z,8.33
2019-01-06T05:53:22.141Z,8.36
2019-01-06T05:54:22.232Z,8.30
2019-01-06T05:55:22.322Z,8.39
2019-01-06T05:56:22.408Z,8.30
2019-01-06T05:57:22.498Z,8.35
2019-01-06T05:58:22.590Z,8.30
2019-01-06T05:59:22.676Z,8.32
2019-01-06T06:00:22.767Z,8.11
2019-01-06T06:01:23.273Z,8.14
2019-01-06T06:02:22.940Z,8.26
2019-01-06T06:03:23.029Z,8.22
2019-01-06T06:04:23.119Z,8.18
2019-01-06T06:05:23.207Z,8.11
2019-01-06T06:06:23.295Z,8.17
2019-01-06T06:07:23.385Z,8.21
2019-01-06T06:08:23.477Z,8.28
2019-01-06T06:09:23.565Z,8.30
2019-01-06T06:10:23.639Z,8.29
2019-01-06T06:11:23.730Z,8.37
2019-01-06T06:12:23.815Z,8.36
2019-01-06T06:13:23.912Z,8.36
2019-01-06T06:14:23.994Z,8.33
2019-01-06T06:15:24.087Z,8.33
2019-01-06T06:16:24.172Z,8.35
2019-01-06T06:17:24.261Z,8.33
2019-01-06T06:18:24.353Z,8.39
2019-01-06T06:19:24.448Z,8.44
2019-01-06T06:20:24.530Z,8.35
2019-01-06T06:21:24.627Z,8.32
2019-01-06T06:22:24.719Z,8.36
2019-01-06T06:23:24.807Z,8.35
2019-01-06T06:24:24.900Z,8.29
2019-01-06T06:25:24.979Z,8.33
2019-01-06T06:26:25.070Z,8.39
2019-01-06T06:27:25.163Z,8.35
2019-01-06T06:28:25.246Z,8.36
2019-01-06T06:29:25.338Z,8.36
2019-01-06T06:30:25.427Z,8.36
2019-01-06T06:31:25.518Z,8.36
2019-01-06T06:32:25.606Z,8.42
2019-01-06T06:33:25.685Z,8.30
2019-01-06T06:34:25.890Z,8.39
2019-01-06T06:35:25.865Z,8.40
2019-01-06T06:36:25.955Z,8.36
2019-01-06T06:37:26.047Z,8.39
2019-01-06T06:38:26.137Z,8.40
2019-01-06T06:39:26.224Z,8.35
2019-01-06T06:40:26.313Z,8.44
2019-01-06T06:41:26.405Z,8.32
2019-01-06T06:42:26.496Z,8.35
2019-01-06T06:43:26.590Z,8.29
2019-01-06T06:44:26.671Z,8.14
2019-01-06T06:45:26.773Z,8.17
2019-01-06T06:46:26.862Z,8.14
2019-01-06T06:47:26.953Z,8.28
2019-01-06T06:48:27.042Z,8.25
2019-01-06T06:49:27.134Z,8.30
2019-01-06T06:50:27.221Z,8.22
2019-01-06T06:51:27.315Z,8.33
2019-01-06T06:52:27.404Z,8.35
2019-01-06T06:53:27.489Z,8.36
2019-01-06T06:54:27.587Z,8.36
2019-01-06T06:55:27.669Z,8.36
2019-01-06T06:56:27.765Z,8.36
2019-01-06T06:57:27.854Z,8.37
2019-01-06T06:58:27.935Z,8.33
2019-01-06T06:59:28.027Z,8.35
2019-01-06T07:00:28.110Z,8.30
2019-01-06T07:01:28.193Z,8.35
2019-01-06T07:02:28.283Z,8.44
2019-01-06T07:03:28.367Z,8.45
2019-01-06T07:04:28.517Z,8.39
2019-01-06T07:05:28.543Z,8.45
2019-01-06T07:06:28.630Z,8.40
2019-01-06T07:07:28.726Z,8.42
2019-01-06T07:08:28.810Z,8.40
2019-01-06T07:09:28.899Z,8.40
2019-01-06T07:10:28.992Z,8.33
2019-01-06T07:11:29.081Z,8.32
2019-01-06T07:12:29.172Z,8.28
2019-01-06T07:13:29.253Z,8.26
2019-01-06T07:14:29.343Z,8.21
2019-01-06T07:15:29.438Z,8.26
2019-01-06T07:16:29.535Z,8.29
2019-01-06T07:17:29.631Z,8.29
2019-01-06T07:18:29.794Z,8.29
2019-01-06T07:19:29.803Z,8.32
2019-01-06T07:20:29.881Z,8.33
2019-01-06T07:21:29.970Z,8.40
2019-01-06T07:22:30.064Z,8.44
2019-01-06T07:23:30.156Z,8.33
2019-01-06T07:24:30.244Z,8.44
2019-01-06T07:25:30.334Z,8.44
2019-01-06T07:26:30.423Z,8.35
2019-01-06T07:27:30.511Z,8.42
2019-01-06T07:28:30.601Z,8.48
2019-01-06T07:29:30.694Z,8.44
2019-01-06T07:30:30.784Z,8.45
2019-01-06T07:31:30.874Z,8.48
2019-01-06T07:32:30.958Z,8.51
2019-01-06T07:33:31.048Z,8.50
2019-01-06T07:34:31.138Z,8.58
2019-01-06T07:35:31.229Z,8.51
2019-01-06T07:36:31.318Z,8.44
2019-01-06T07:37:31.417Z,8.55
2019-01-06T07:38:31.500Z,8.48
2019-01-06T07:39:31.595Z,8.51
2019-01-06T07:40:31.680Z,8.47
2019-01-06T07:41:31.778Z,8.39
2019-01-06T07:42:31.862Z,8.44
2019-01-06T07:43:31.952Z,8.42
2019-01-06T07:44:32.042Z,8.42
2019-01-06T07:45:32.122Z,8.40
2019-01-06T07:46:32.212Z,8.39
2019-01-06T07:47:32.299Z,8.47
2019-01-06T07:48:32.391Z,8.47
2019-01-06T07:49:32.484Z,8.35
2019-01-06T07:50:32.571Z,8.39
2019-01-06T07:51:32.658Z,8.39
2019-01-06T07:52:32.747Z,8.45
2019-01-06T07:53:32.840Z,8.48
2019-01-06T07:54:32.924Z,8.54
2019-01-06T07:55:33.012Z,8.53
2019-01-06T07:56:33.103Z,8.53
2019-01-06T07:57:33.191Z,8.54
2019-01-06T07:58:33.284Z,8.57
2019-01-06T07:59:33.387Z,8.63
2019-01-06T08:00:33.459Z,8.68
2019-01-06T08:01:33.543Z,8.69
2019-01-06T08:02:33.633Z,8.54
2019-01-06T08:03:33.724Z,8.65
2019-01-06T08:04:33.816Z,8.68
2019-01-06T08:05:33.905Z,8.63
2019-01-06T08:06:34.013Z,8.62
2019-01-06T08:07:34.101Z,8.58
2019-01-06T08:08:34.198Z,8.60
2019-01-06T08:09:34.283Z,8.71
2019-01-06T08:10:34.374Z,8.63
2019-01-06T08:11:34.466Z,8.66
2019-01-06T08:12:34.557Z,8.72
2019-01-06T08:13:34.646Z,8.71
2019-01-06T08:14:34.737Z,8.73
2019-01-06T08:15:34.829Z,8.71
2019-01-06T08:16:35.185Z,8.73
2019-01-06T08:17:35.057Z,8.81
2019-01-06T08:18:35.146Z,8.71
2019-01-06T08:19:35.237Z,8.69
2019-01-06T08:20:35.331Z,8.75
2019-01-06T08:21:35.413Z,8.78
2019-01-06T08:22:35.500Z,8.71
2019-01-06T08:23:35.595Z,8.81
2019-01-06T08:24:35.694Z,8.79
2019-01-06T08:25:35.765Z,8.78
2019-01-06T08:26:35.853Z,8.79
2019-01-06T08:27:35.941Z,8.87
2019-01-06T08:28:36.032Z,8.88
2019-01-06T08:29:36.123Z,8.87
2019-01-06T08:30:36.218Z,8.88
2019-01-06T08:31:36.301Z,8.91
2019-01-06T08:32:36.388Z,8.88
2019-01-06T08:33:36.476Z,8.94
2019-01-06T08:34:36.573Z,8.91
2019-01-06T08:35:36.660Z,8.91
2019-01-06T08:36:36.746Z,8.94
2019-01-06T08:37:36.839Z,8.87
2019-01-06T08:38:36.927Z,8.97
2019-01-06T08:39:37.014Z,8.91
2019-01-06T08:40:37.105Z,9.02
2019-01-06T08:41:37.182Z,8.96
2019-01-06T08:42:37.285Z,8.88
2019-01-06T08:43:37.371Z,8.94
2019-01-06T08:44:37.475Z,9.01
2019-01-06T08:45:37.564Z,8.99
2019-01-06T08:46:37.654Z,8.96
2019-01-06T08:47:37.739Z,9.02
2019-01-06T08:48:37.834Z,8.99
2019-01-06T08:49:37.927Z,9.02
2019-01-06T08:50:38.018Z,9.02
2019-01-06T08:51:38.112Z,9.04
2019-01-06T08:52:38.194Z,9.04
2019-01-06T08:53:38.283Z,9.04
2019-01-06T08:54:38.375Z,9.04
2019-01-06T08:55:38.466Z,9.09
2019-01-06T08:56:38.556Z,9.05
2019-01-06T08:57:38.648Z,9.12
2019-01-06T08:58:38.734Z,9.09
2019-01-06T08:59:38.824Z,9.04
2019-01-06T09:00:38.914Z,8.99
2019-01-06T09:01:39.005Z,9.02
2019-01-06T09:02:39.095Z,9.02
2019-01-06T09:03:39.210Z,8.99
2019-01-06T09:04:39.297Z,9.02
2019-01-06T09:05:39.387Z,8.99
2019-01-06T09:06:39.479Z,8.97
2019-01-06T09:07:39.573Z,9.06
2019-01-06T09:08:39.665Z,9.02
2019-01-06T09:09:45.528Z,9.06
2019-01-06T09:10:39.851Z,9.12
2019-01-06T09:11:39.956Z,9.09
2019-01-06T09:12:43.292Z,9.02
2019-01-06T09:13:40.118Z,9.09
2019-01-06T09:14:40.208Z,9.06
2019-01-06T09:15:40.305Z,9.16
2019-01-06T09:16:40.394Z,9.12
2019-01-06T09:17:40.497Z,9.09
2019-01-06T09:18:40.587Z,9.01
2019-01-06T09:19:50.614Z,9.06
2019-01-06T09:20:40.808Z,9.16
2019-01-06T09:21:40.897Z,9.16
2019-01-06T09:22:40.987Z,9.21
2019-01-06T09:23:41.073Z,9.23
2019-01-06T09:24:41.170Z,9.23
2019-01-06T09:25:41.423Z,9.24
2019-01-06T09:26:41.356Z,9.21
2019-01-06T09:27:41.445Z,9.27
2019-01-06T09:28:41.535Z,9.27
2019-01-06T09:29:41.629Z,9.31
2019-01-06T09:30:41.716Z,9.30
2019-01-06T09:31:41.807Z,9.28
2019-01-06T09:32:41.900Z,9.40
2019-01-06T09:33:41.991Z,9.39
2019-01-06T09:34:42.078Z,9.35
2019-01-06T09:35:42.168Z,9.39
2019-01-06T09:36:42.259Z,9.39
2019-01-06T09:37:42.353Z,9.35
2019-01-06T09:38:42.442Z,9.38
2019-01-06T09:39:42.533Z,9.35
2019-01-06T09:40:42.622Z,9.40
2019-01-06T09:41:42.713Z,9.35
2019-01-06T09:42:42.801Z,9.34
2019-01-06T09:43:42.913Z,9.39
2019-01-06T09:44:42.967Z,9.40
2019-01-06T09:45:43.053Z,9.38
2019-01-06T09:46:43.144Z,9.39
2019-01-06T09:47:43.234Z,9.32
2019-01-06T09:48:43.323Z,9.40
2019-01-06T09:49:43.410Z,9.45
2019-01-06T09:50:43.501Z,9.46
2019-01-06T09:51:43.595Z,9.52
2019-01-06T09:52:43.682Z,9.48
2019-01-06T09:53:43.772Z,9.43
2019-01-06T09:54:43.865Z,9.53
2019-01-06T09:55:43.963Z,9.53
2019-01-06T09:56:44.046Z,9.60
2019-01-06T09:57:44.136Z,9.60
2019-01-06T09:58:44.224Z,9.63
2019-01-06T09:59:44.317Z,9.70
2019-01-06T10:00:44.410Z,9.70
2019-01-06T10:01:44.505Z,9.75
2019-01-06T10:02:44.590Z,9.67
2019-01-06T10:03:44.682Z,9.73
2019-01-06T10:04:44.772Z,9.79
2019-01-06T10:05:44.868Z,9.63
2019-01-06T10:06:44.951Z,9.66
2019-01-06T10:07:45.038Z,9.66
2019-01-06T10:08:45.123Z,9.63
2019-01-06T10:09:45.215Z,9.68
2019-01-06T10:10:45.307Z,9.73
2019-01-06T10:11:45.395Z,9.70
2019-01-06T10:12:45.489Z,9.79
2019-01-06T10:13:45.580Z,9.67
2019-01-06T10:14:45.671Z,9.76
2019-01-06T10:15:45.761Z,9.79
2019-01-06T10:16:45.847Z,9.82
2019-01-06T10:17:45.946Z,9.76
2019-01-06T10:18:46.034Z,9.81
2019-01-06T10:19:46.142Z,9.81
2019-01-06T10:20:46.233Z,9.73
2019-01-06T10:21:46.326Z,9.94
2019-01-06T10:22:46.415Z,9.88
2019-01-06T10:23:46.514Z,9.94
2019-01-06T10:24:51.970Z,9.97
2019-01-06T10:25:46.689Z,10.03
2019-01-06T10:26:46.777Z,9.86
2019-01-06T10:27:46.865Z,9.99
2019-01-06T10:28:47.242Z,9.89
2019-01-06T10:29:47.052Z,9.81
2019-01-06T10:30:47.137Z,9.97
2019-01-06T10:31:47.228Z,9.94
2019-01-06T10:32:47.317Z,9.89
2019-01-06T10:33:47.408Z,9.96
2019-01-06T10:34:47.501Z,10.03
2019-01-06T10:35:47.590Z,10.00
2019-01-06T10:36:47.685Z,9.89
2019-01-06T10:37:47.773Z,9.78
2019-01-06T10:38:47.900Z,9.63
2019-01-06T10:39:47.977Z,9.40
2019-01-06T10:40:48.066Z,9.50
2019-01-06T10:41:48.162Z,9.60
2019-01-06T10:42:48.249Z,9.66
2019-01-06T10:43:48.342Z,9.57
2019-01-06T10:44:48.431Z,9.61
2019-01-06T10:45:48.520Z,9.71
2019-01-06T10:46:48.613Z,9.52
2019-01-06T10:47:48.702Z,9.40
2019-01-06T10:48:48.791Z,9.30
2019-01-06T10:49:48.881Z,9.45
2019-01-06T10:50:48.974Z,9.60
2019-01-06T10:51:49.061Z,9.38
2019-01-06T10:52:49.154Z,9.30
2019-01-06T10:53:49.245Z,9.38
2019-01-06T10:54:49.335Z,9.46
2019-01-06T10:55:49.426Z,9.43
2019-01-06T10:56:49.516Z,9.52
2019-01-06T10:57:49.612Z,9.52
2019-01-06T10:58:49.700Z,9.64
2019-01-06T10:59:49.793Z,9.66
2019-01-06T11:00:49.893Z,9.63
2019-01-06T11:01:49.972Z,9.66
2019-01-06T11:02:50.063Z,9.75
2019-01-06T11:03:50.148Z,9.71
2019-01-06T11:04:50.246Z,9.67
2019-01-06T11:05:50.335Z,9.78
2019-01-06T11:06:50.428Z,9.76
2019-01-06T11:07:50.520Z,9.88
2019-01-06T11:08:50.609Z,9.91
2019-01-06T11:09:50.698Z,9.88
2019-01-06T11:10:50.789Z,9.91
2019-01-06T11:11:50.880Z,9.96
2019-01-06T11:12:50.980Z,9.99
2019-01-06T11:13:51.062Z,10.06
2019-01-06T11:14:51.154Z,9.99
2019-01-06T11:15:51.237Z,9.99
2019-01-06T11:16:51.345Z,10.00
2019-01-06T11:17:51.439Z,9.97
2019-01-06T11:18:51.532Z,10.00
2019-01-06T11:19:51.619Z,10.04
2019-01-06T11:20:51.711Z,9.99
2019-01-06T11:21:51.801Z,9.96
2019-01-06T11:22:51.894Z,9.99
2019-01-06T11:23:51.994Z,9.99
2019-01-06T11:24:52.086Z,10.03
2019-01-06T11:25:52.178Z,10.06
2019-01-06T11:26:52.270Z,10.14
2019-01-06T11:27:52.359Z,10.19
2019-01-06T11:28:52.454Z,10.09
2019-01-06T11:29:52.574Z,10.25
2019-01-06T11:30:52.661Z,10.21
2019-01-06T11:31:52.752Z,10.21
2019-01-06T11:32:52.840Z,10.21
2019-01-06T11:33:53.007Z,10.26
2019-01-06T11:34:53.030Z,10.25
2019-01-06T11:35:53.116Z,10.32
2019-01-06T11:36:53.205Z,10.26
2019-01-06T11:37:53.296Z,9.93
2019-01-06T11:38:53.383Z,9.99
2019-01-06T11:39:53.479Z,10.04
2019-01-06T11:40:53.573Z,9.68
2019-01-06T11:41:53.653Z,9.71
2019-01-06T11:42:53.742Z,9.73
2019-01-06T11:43:53.836Z,9.82
2019-01-06T11:44:53.925Z,9.91
2019-01-06T11:45:54.013Z,9.83
2019-01-06T11:46:54.107Z,10.01
2019-01-06T11:47:54.203Z,9.86
2019-01-06T11:48:54.298Z,9.66
2019-01-06T11:49:54.384Z,9.83
2019-01-06T11:50:54.484Z,9.83
2019-01-06T11:51:54.560Z,9.86
2019-01-06T11:52:54.649Z,9.86
2019-01-06T11:53:54.740Z,9.73
2019-01-06T11:54:54.832Z,9.75
2019-01-06T11:55:54.925Z,9.83
2019-01-06T11:56:55.025Z,9.85
2019-01-06T11:57:55.103Z,9.81
2019-01-06T11:58:55.197Z,9.79
2019-01-06T11:59:55.286Z,9.83
2019-01-06T12:00:55.383Z,9.58
2019-01-06T12:01:57.147Z,9.58
2019-01-06T12:02:55.552Z,9.66
2019-01-06T12:03:55.642Z,9.78
2019-01-06T12:04:55.735Z,9.66
2019-01-06T12:05:55.825Z,9.60
2019-01-06T12:06:55.914Z,9.49
2019-01-06T12:07:56.005Z,9.32
2019-01-06T12:08:56.099Z,9.09
2019-01-06T12:09:56.194Z,9.13
2019-01-06T12:10:56.287Z,9.21
2019-01-06T12:11:56.374Z,9.28
2019-01-06T12:12:56.466Z,9.30
2019-01-06T12:13:56.557Z,9.42
2019-01-06T12:14:56.649Z,9.46
2019-01-06T12:15:56.738Z,9.56
2019-01-06T12:16:56.828Z,9.60
2019-01-06T12:17:56.920Z,9.70
2019-01-06T12:18:57.006Z,9.73
2019-01-06T12:19:57.106Z,9.76
2019-01-06T12:20:57.187Z,9.86
2019-01-06T12:21:57.275Z,9.83
2019-01-06T12:22:57.379Z,9.88
2019-01-06T12:23:57.461Z,9.93
2019-01-06T12:24:57.571Z,9.93
2019-01-06T12:25:57.644Z,10.04
2019-01-06T12:26:57.733Z,10.01
2019-01-06T12:27:57.827Z,9.93
2019-01-06T12:28:57.919Z,10.03
2019-01-06T12:29:58.009Z,10.07
2019-01-06T12:30:58.175Z,10.12
2019-01-06T12:31:58.176Z,10.04
2019-01-06T12:32:58.285Z,10.21
2019-01-06T12:33:58.377Z,10.19
2019-01-06T12:34:58.468Z,10.22
2019-01-06T12:35:58.558Z,10.21
2019-01-06T12:36:58.648Z,10.19
2019-01-06T12:37:58.745Z,10.17
2019-01-06T12:38:58.840Z,10.15
2019-01-06T12:39:58.920Z,10.07
2019-01-06T12:40:59.033Z,10.18
2019-01-06T12:41:59.126Z,10.09
2019-01-06T12:42:59.219Z,10.12
2019-01-06T12:43:59.306Z,10.07
2019-01-06T12:44:59.402Z,10.03
2019-01-06T12:45:59.495Z,10.07
2019-01-06T12:46:59.587Z,10.03
2019-01-06T12:47:59.681Z,10.04
2019-01-06T12:48:59.770Z,10.07
2019-01-06T12:49:59.861Z,10.03
2019-01-06T12:50:59.955Z,10.06
2019-01-06T12:52:00.047Z,10.00
2019-01-06T12:53:00.138Z,10.06
2019-01-06T12:54:00.227Z,10.10
2019-01-06T12:55:00.323Z,10.03
2019-01-06T12:56:00.409Z,9.99
2019-01-06T12:57:00.498Z,10.04
2019-01-06T12:58:00.593Z,10.10
2019-01-06T12:59:00.682Z,9.96
2019-01-06T13:00:00.774Z,10.07
2019-01-06T13:01:00.866Z,10.07
2019-01-06T13:02:00.959Z,9.99
2019-01-06T13:03:01.053Z,9.79
2019-01-06T13:04:01.144Z,9.63
2019-01-06T13:05:01.247Z,9.68
2019-01-06T13:06:01.337Z,9.68
2019-01-06T13:07:01.422Z,9.88
2019-01-06T13:08:01.515Z,10.00
2019-01-06T13:09:01.611Z,10.04
2019-01-06T13:10:01.702Z,10.04
2019-01-06T13:11:01.792Z,10.03
2019-01-06T13:12:01.916Z,10.07
2019-01-06T13:13:01.972Z,10.21
2019-01-06T13:14:02.061Z,10.17
2019-01-06T13:15:02.157Z,10.25
2019-01-06T13:16:02.248Z,10.32
2019-01-06T13:17:02.341Z,10.32
2019-01-06T13:18:02.429Z,10.32